createdAt,value
2023-03-28T00:01:20.337Z,3.83
2023-03-28T00:03:50.062Z,3.58
2023-03-28T00:06:21.012Z,3.75
2023-03-28T00:08:51.399Z,3.62
2023-03-28T00:11:22.593Z,3.70
2023-03-28T00:14:03.653Z,3.20
2023-03-28T00:16:39.382Z,3.50
2023-03-28T00:19:11.813Z,3.30
2023-03-28T00:21:46.018Z,3.25
2023-03-28T00:24:17.455Z,3.55
2023-03-28T00:26:48.565Z,3.52
2023-03-28T00:29:20.081Z,3.50
2023-03-28T00:31:51.490Z,3.27
2023-03-28T00:34:21.170Z,3.70
2023-03-28T00:36:50.699Z,3.40
2023-03-28T00:39:20.449Z,3.40
2023-03-28T00:41:50.901Z,3.55
2023-03-28T00:44:49.533Z,3.52
2023-03-28T00:47:27.763Z,3.85
2023-03-28T00:50:03.122Z,3.37
2023-03-28T00:52:39.502Z,3.77
2023-03-28T00:55:14.865Z,3.62
2023-03-28T00:57:45.382Z,3.55
2023-03-28T01:00:17.882Z,3.98
2023-03-28T01:02:53.045Z,4.10
2023-03-28T01:05:25.901Z,3.60
2023-03-28T01:08:17.644Z,3.67
2023-03-28T01:10:46.943Z,3.85
2023-03-28T01:13:19.379Z,3.95
2023-03-28T01:15:51.709Z,3.75
2023-03-28T01:21:10.783Z,3.67
2023-03-28T01:24:11.707Z,3.58
2023-03-28T01:26:37.216Z,3.83
2023-03-28T01:29:30.456Z,4.00
2023-03-28T01:32:23.691Z,4.03
2023-03-28T01:35:13.008Z,4.22
2023-03-28T01:37:54.732Z,4.00
2023-03-28T01:40:57.339Z,3.27
2023-03-28T01:43:30.122Z,3.83
2023-03-28T01:46:16.895Z,3.87
2023-03-28T01:49:07.866Z,3.90
2023-03-28T01:51:55.475Z,3.87
2023-03-28T01:54:39.933Z,4.08
2023-03-28T01:57:20.236Z,4.20
2023-03-28T01:59:56.230Z,4.15
2023-03-28T02:02:39.415Z,4.08
2023-03-28T02:05:15.598Z,4.30
2023-03-28T02:07:47.082Z,3.83
2023-03-28T02:10:19.577Z,4.15
2023-03-28T02:13:01.671Z,4.67
2023-03-28T02:15:43.701Z,4.28
2023-03-28T02:18:24.078Z,4.30
2023-03-28T02:20:58.583Z,4.53
2023-03-28T02:23:45.626Z,4.40
2023-03-28T02:26:24.303Z,4.53
2023-03-28T02:28:57.210Z,4.45
2023-03-28T02:31:32.916Z,4.70
2023-03-28T02:34:04.383Z,4.22
2023-03-28T02:36:53.250Z,4.15
2023-03-28T02:40:01.328Z,4.30
2023-03-28T02:42:34.000Z,4.25
2023-03-28T02:45:27.116Z,4.37
2023-03-28T02:50:41.435Z,4.08
2023-03-28T02:53:31.741Z,4.10
2023-03-28T02:56:10.420Z,4.45
2023-03-28T02:59:03.884Z,4.33
2023-03-28T03:01:34.215Z,4.30
2023-03-28T03:04:04.342Z,4.53
2023-03-28T03:06:36.058Z,4.37
2023-03-28T03:09:06.051Z,4.17
2023-03-28T03:11:35.394Z,4.60
2023-03-28T03:14:04.802Z,4.20
2023-03-28T03:16:34.818Z,3.98
2023-03-28T03:19:04.410Z,4.35
2023-03-28T03:21:34.132Z,4.75
2023-03-28T03:24:04.422Z,4.17
2023-03-28T03:26:33.822Z,3.85
2023-03-28T03:29:05.176Z,4.45
2023-03-28T03:31:35.184Z,4.47
2023-03-28T03:34:24.324Z,4.30
2023-03-28T03:36:55.427Z,4.58
2023-03-28T03:39:25.131Z,4.35
2023-03-28T03:41:54.629Z,4.22
2023-03-28T03:44:24.439Z,4.30
2023-03-28T03:46:54.154Z,4.62
2023-03-28T03:49:23.787Z,4.62
2023-03-28T03:51:54.064Z,4.20
2023-03-28T03:54:23.978Z,4.35
2023-03-28T03:56:54.375Z,4.62
2023-03-28T03:59:23.911Z,4.35
2023-03-28T04:01:54.221Z,4.62
2023-03-28T04:04:45.303Z,4.97
2023-03-28T04:07:19.236Z,4.62
2023-03-28T04:09:50.423Z,4.95
2023-03-28T04:12:19.774Z,4.95
2023-03-28T04:14:51.073Z,5.53
2023-03-28T04:17:41.781Z,5.10
2023-03-28T04:20:14.027Z,5.05
2023-03-28T04:25:19.585Z,4.90
2023-03-28T04:27:49.042Z,6.33
2023-03-28T04:30:20.468Z,6.53
2023-03-28T04:32:59.047Z,5.80
2023-03-28T04:35:29.846Z,6.90
2023-03-28T04:37:59.352Z,6.10
2023-03-28T04:40:29.465Z,6.50
2023-03-28T04:43:03.386Z,6.92
2023-03-28T04:45:34.408Z,8.30
2023-03-28T04:48:06.881Z,7.95
2023-03-28T04:50:36.226Z,8.25
2023-03-28T04:53:06.412Z,7.92
2023-03-28T04:55:37.808Z,8.60
2023-03-28T04:58:08.811Z,8.63
2023-03-28T05:00:39.392Z,8.58
2023-03-28T05:03:21.674Z,10.03
2023-03-28T05:05:54.054Z,10.63
2023-03-28T05:08:26.975Z,10.78
2023-03-28T05:10:56.386Z,11.80
2023-03-28T05:13:26.361Z,12.23
2023-03-28T05:16:00.580Z,11.55
2023-03-28T05:18:34.993Z,12.03
2023-03-28T05:21:05.153Z,12.70
2023-03-28T05:23:34.744Z,12.98
2023-03-28T05:26:07.210Z,13.22
2023-03-28T05:28:37.286Z,12.88
2023-03-28T05:31:08.631Z,12.78
2023-03-28T05:33:38.071Z,13.00
2023-03-28T05:36:08.080Z,13.88
2023-03-28T05:38:38.187Z,13.25
2023-03-28T05:41:09.909Z,13.48
2023-03-28T05:43:39.228Z,13.10
2023-03-28T05:46:09.342Z,14.13
2023-03-28T05:48:40.490Z,13.78
2023-03-28T05:51:09.863Z,14.90
2023-03-28T05:53:39.162Z,13.93
2023-03-28T05:56:11.398Z,14.58
2023-03-28T05:58:40.705Z,14.73
2023-03-28T06:01:11.875Z,13.58
2023-03-28T06:03:42.784Z,14.65
2023-03-28T06:06:12.347Z,13.68
2023-03-28T06:08:42.101Z,12.47
2023-03-28T06:11:12.743Z,11.55
2023-03-28T06:13:53.311Z,10.10
2023-03-28T06:16:30.512Z,9.43
2023-03-28T06:19:03.988Z,9.15
2023-03-28T06:21:26.046Z,8.73
2023-03-28T06:23:56.464Z,8.83
2023-03-28T06:26:27.586Z,8.93
2023-03-28T06:28:57.154Z,8.33
2023-03-28T06:31:34.857Z,8.90
2023-03-28T06:34:04.347Z,9.00
2023-03-28T06:36:34.767Z,8.43
2023-03-28T06:39:04.880Z,8.55
2023-03-28T06:41:34.974Z,8.48
2023-03-28T06:44:05.625Z,7.47
2023-03-28T06:46:39.894Z,7.70
2023-03-28T06:49:09.621Z,6.97
2023-03-28T06:51:40.957Z,7.05
2023-03-28T06:54:10.594Z,6.55
2023-03-28T06:56:40.083Z,5.92
2023-03-28T06:59:09.683Z,5.92
2023-03-28T07:01:39.841Z,5.85
2023-03-28T07:04:14.129Z,6.12
2023-03-28T07:06:44.787Z,5.87
2023-03-28T07:09:14.032Z,6.72
2023-03-28T07:11:45.256Z,6.10
2023-03-28T07:14:14.740Z,6.28
2023-03-28T07:16:44.899Z,6.00
2023-03-28T07:19:14.596Z,6.15
2023-03-28T07:21:45.832Z,6.10
2023-03-28T07:24:16.032Z,6.42
2023-03-28T07:26:52.002Z,6.40
2023-03-28T07:29:21.404Z,6.20
2023-03-28T07:31:51.379Z,6.45
2023-03-28T07:34:20.811Z,6.00
2023-03-28T07:36:50.600Z,6.00
2023-03-28T07:39:22.477Z,6.08
2023-03-28T07:41:53.097Z,5.58
2023-03-28T07:44:22.338Z,5.12
2023-03-28T07:46:52.909Z,5.33
2023-03-28T07:49:22.971Z,5.37
2023-03-28T07:51:52.797Z,5.35
2023-03-28T07:54:22.181Z,5.10
2023-03-28T07:56:52.161Z,5.15
2023-03-28T07:59:23.260Z,4.87
2023-03-28T08:01:54.673Z,4.58
2023-03-28T08:04:24.444Z,5.22
2023-03-28T08:06:58.565Z,4.78
2023-03-28T08:09:28.390Z,4.50
2023-03-28T08:12:02.521Z,4.47
2023-03-28T08:14:32.181Z,4.75
2023-03-28T08:17:02.059Z,4.75
2023-03-28T08:19:32.404Z,4.85
2023-03-28T08:22:16.639Z,4.62
2023-03-28T08:24:50.602Z,4.85
2023-03-28T08:27:24.785Z,4.70
2023-03-28T08:29:56.070Z,4.62
2023-03-28T08:32:27.008Z,4.60
2023-03-28T08:34:58.227Z,4.50
2023-03-28T08:37:28.253Z,4.40
2023-03-28T08:40:00.647Z,3.70
2023-03-28T08:42:50.116Z,3.50
2023-03-28T08:45:31.548Z,3.72
2023-03-28T08:48:13.231Z,3.58
2023-03-28T08:50:53.594Z,3.20
2023-03-28T08:53:30.496Z,3.25
2023-03-28T08:56:01.439Z,3.25
2023-03-28T08:58:34.686Z,3.30
2023-03-28T09:01:05.196Z,4.15
2023-03-28T09:03:34.906Z,2.95
2023-03-28T09:06:12.341Z,3.35
2023-03-28T09:08:54.180Z,2.98
2023-03-28T09:11:37.708Z,3.30
2023-03-28T09:14:26.749Z,2.92
2023-03-28T09:17:17.722Z,2.98
2023-03-28T09:20:14.508Z,3.20
2023-03-28T09:23:24.510Z,2.70
2023-03-28T09:26:01.634Z,3.47
2023-03-28T09:28:35.819Z,3.25
2023-03-28T09:31:09.392Z,3.55
2023-03-28T09:33:44.003Z,3.50
2023-03-28T09:36:18.571Z,3.50
2023-03-28T09:38:59.753Z,3.33
2023-03-28T09:41:45.391Z,3.70
2023-03-28T09:44:53.039Z,3.70
2023-03-28T09:47:29.745Z,4.12
2023-03-28T09:50:11.792Z,4.25
2023-03-28T09:52:32.733Z,5.03
2023-03-28T09:55:02.299Z,6.42
2023-03-28T09:57:51.926Z,6.50
2023-03-28T10:00:23.476Z,5.45
2023-03-28T10:02:55.753Z,5.22
2023-03-28T10:05:34.203Z,3.92
2023-03-28T10:08:08.546Z,3.70
2023-03-28T10:10:42.665Z,3.17
2023-03-28T10:13:14.166Z,3.62
2023-03-28T10:15:50.201Z,3.22
2023-03-28T10:18:31.682Z,2.75
2023-03-28T10:21:15.603Z,3.05
2023-03-28T10:23:52.876Z,2.70
2023-03-28T10:26:24.588Z,2.90
2023-03-28T10:28:54.961Z,2.50
2023-03-28T10:31:31.952Z,2.50
2023-03-28T10:34:03.654Z,3.12
2023-03-28T10:36:43.892Z,3.10
2023-03-28T10:39:32.605Z,2.80
2023-03-28T10:42:23.833Z,3.12
2023-03-28T10:45:04.205Z,2.67
2023-03-28T10:47:35.917Z,3.00
2023-03-28T10:50:08.156Z,2.63
2023-03-28T10:52:50.957Z,2.25
2023-03-28T10:55:25.241Z,2.17
2023-03-28T10:58:14.208Z,2.00
2023-03-28T11:00:57.338Z,2.20
2023-03-28T11:03:57.668Z,2.62
2023-03-28T11:06:46.804Z,2.25
2023-03-28T11:09:25.792Z,2.27
2023-03-28T11:14:21.808Z,2.12
2023-03-28T11:15:11.924Z,2.33
2023-03-28T11:17:55.248Z,2.40
2023-03-28T11:20:46.810Z,2.60
2023-03-28T11:23:42.223Z,2.40
2023-03-28T11:26:25.262Z,2.40
2023-03-28T11:29:17.446Z,2.42
2023-03-28T11:31:53.166Z,2.45
2023-03-28T11:34:25.701Z,2.08
2023-03-28T11:39:51.483Z,2.20
2023-03-28T11:42:37.589Z,2.62
2023-03-28T11:45:09.544Z,2.25
2023-03-28T11:47:47.924Z,2.33
2023-03-28T11:50:27.349Z,2.55
2023-03-28T11:53:04.713Z,2.17
2023-03-28T11:55:47.679Z,2.05
2023-03-28T11:58:28.129Z,2.30
2023-03-28T12:01:07.025Z,2.45
2023-03-28T12:03:56.487Z,2.22
2023-03-28T12:06:29.114Z,2.20
2023-03-28T12:09:11.301Z,2.30
2023-03-28T12:11:48.024Z,2.95
2023-03-28T12:14:32.529Z,1.92
2023-03-28T12:17:06.307Z,2.40
2023-03-28T12:19:40.581Z,2.40
2023-03-28T12:22:19.574Z,2.30
2023-03-28T12:25:04.422Z,2.10
2023-03-28T12:27:56.277Z,2.55
2023-03-28T12:30:48.978Z,2.62
2023-03-28T12:33:23.068Z,2.30
2023-03-28T12:36:25.968Z,2.70
2023-03-28T12:39:19.868Z,2.50
2023-03-28T12:41:49.311Z,2.45
2023-03-28T12:44:23.038Z,2.55
2023-03-28T12:47:12.085Z,2.08
2023-03-28T12:49:45.808Z,2.15
2023-03-28T12:52:21.507Z,2.27
2023-03-28T12:55:02.288Z,2.45
2023-03-28T12:57:44.047Z,2.67
2023-03-28T13:00:45.066Z,2.42
2023-03-28T13:03:34.984Z,2.70
2023-03-28T13:06:13.593Z,2.30
2023-03-28T13:09:05.165Z,2.60
2023-03-28T13:11:58.981Z,2.30
2023-03-28T13:14:42.674Z,2.70
2023-03-28T13:17:21.804Z,2.58
2023-03-28T13:19:56.064Z,2.22
2023-03-28T13:22:56.377Z,2.72
2023-03-28T13:25:32.401Z,2.83
2023-03-28T13:28:22.088Z,2.50
2023-03-28T13:31:09.222Z,3.00
2023-03-28T13:33:44.368Z,3.15
2023-03-28T13:36:15.977Z,2.87
2023-03-28T13:39:09.474Z,2.92
2023-03-28T13:41:48.759Z,2.72
2023-03-28T13:44:29.814Z,2.85
2023-03-28T13:46:59.412Z,2.90
2023-03-28T13:49:36.316Z,2.75
2023-03-28T13:52:17.581Z,2.77
2023-03-28T13:54:48.515Z,4.20
2023-03-28T13:57:20.820Z,3.10
2023-03-28T14:00:01.722Z,3.37
2023-03-28T14:02:38.312Z,3.10
2023-03-28T14:05:22.831Z,3.17
2023-03-28T14:07:54.263Z,3.37
2023-03-28T14:10:28.979Z,3.35
2023-03-28T14:13:01.584Z,3.02
2023-03-28T14:18:01.428Z,3.10
2023-03-28T14:20:31.531Z,3.15
2023-03-28T14:23:01.807Z,3.42
2023-03-28T14:25:32.182Z,3.58
2023-03-28T14:28:08.433Z,3.15
2023-03-28T14:30:42.393Z,3.12
2023-03-28T14:33:16.850Z,3.67
2023-03-28T14:35:47.855Z,3.60
2023-03-28T14:38:20.654Z,3.47
2023-03-28T14:40:50.048Z,3.50
2023-03-28T14:43:31.213Z,3.35
2023-03-28T14:46:03.564Z,3.98
2023-03-28T14:48:33.410Z,3.80
2023-03-28T14:51:04.174Z,3.83
2023-03-28T14:53:39.127Z,3.45
2023-03-28T14:56:12.805Z,3.80
2023-03-28T14:58:44.505Z,3.33
2023-03-28T15:01:18.490Z,2.97
2023-03-28T15:03:51.645Z,3.37
2023-03-28T15:06:23.353Z,3.47
2023-03-28T15:08:55.067Z,3.30
2023-03-28T15:11:29.150Z,3.43
2023-03-28T15:14:10.281Z,3.50
2023-03-28T15:16:45.421Z,3.15
2023-03-28T15:19:23.567Z,3.67
2023-03-28T15:22:06.535Z,3.47
2023-03-28T15:24:37.756Z,3.85
2023-03-28T15:27:09.803Z,3.55
2023-03-28T15:29:40.472Z,3.27
2023-03-28T15:32:15.833Z,3.70
2023-03-28T15:34:57.685Z,3.85
2023-03-28T15:37:27.819Z,3.30
2023-03-28T15:40:00.379Z,3.70
2023-03-28T15:45:03.942Z,3.37
2023-03-28T15:47:35.449Z,3.47
2023-03-28T15:50:11.562Z,3.70
2023-03-28T15:52:43.249Z,4.12
2023-03-28T15:55:15.892Z,3.53
2023-03-28T16:00:37.796Z,3.75
2023-03-28T16:03:22.719Z,3.70
2023-03-28T16:06:23.044Z,4.00
2023-03-28T16:08:47.354Z,3.65
2023-03-28T16:11:23.091Z,4.17
2023-03-28T16:13:57.541Z,4.67
2023-03-28T16:16:30.654Z,3.98
2023-03-28T16:19:07.994Z,4.62
2023-03-28T16:21:37.786Z,4.45
2023-03-28T16:24:08.006Z,4.20
2023-03-28T16:26:37.332Z,4.55
2023-03-28T16:29:06.911Z,4.78
2023-03-28T16:31:36.354Z,4.08
2023-03-28T16:34:09.256Z,5.00
2023-03-28T16:36:37.056Z,4.58
2023-03-28T16:39:08.359Z,5.30
2023-03-28T16:41:38.082Z,4.67
2023-03-28T16:44:07.628Z,4.90
2023-03-28T16:46:37.213Z,8.00
2023-03-28T16:49:07.493Z,5.08
2023-03-28T16:51:37.374Z,4.95
2023-03-28T16:54:06.746Z,4.90
2023-03-28T16:56:36.544Z,4.97
2023-03-28T16:59:08.490Z,4.58
2023-03-28T17:01:39.202Z,4.72
2023-03-28T17:04:08.517Z,5.12
2023-03-28T17:06:38.201Z,5.03
2023-03-28T17:09:07.909Z,4.95
2023-03-28T17:11:37.528Z,4.97
2023-03-28T17:14:07.759Z,4.75
2023-03-28T17:16:38.874Z,4.95
2023-03-28T17:19:08.522Z,4.58
2023-03-28T17:21:38.434Z,5.08
2023-03-28T17:24:09.835Z,4.92
2023-03-28T17:26:39.274Z,5.00
2023-03-28T17:29:09.981Z,5.22
2023-03-28T17:31:39.835Z,4.92
2023-03-28T17:34:09.755Z,4.83
2023-03-28T17:36:41.142Z,5.47
2023-03-28T17:39:11.907Z,6.22
2023-03-28T17:41:41.896Z,5.35
2023-03-28T17:44:11.281Z,5.50
2023-03-28T17:46:41.421Z,5.60
2023-03-28T17:49:10.986Z,5.55
2023-03-28T17:51:41.112Z,5.72
2023-03-28T17:54:12.322Z,5.00
2023-03-28T17:56:41.901Z,4.65
2023-03-28T17:59:12.335Z,5.20
2023-03-28T18:01:41.774Z,11.75
2023-03-28T18:04:11.585Z,4.55
2023-03-28T18:06:49.114Z,4.55
2023-03-28T18:09:18.443Z,4.80
2023-03-28T18:11:49.239Z,4.47
2023-03-28T18:14:18.945Z,4.60
2023-03-28T18:16:48.948Z,4.20
2023-03-28T18:19:20.142Z,4.15
2023-03-28T18:21:49.885Z,4.12
2023-03-28T18:24:20.563Z,4.20
2023-03-28T18:26:50.298Z,3.62
2023-03-28T18:29:20.168Z,5.05
2023-03-28T18:31:50.195Z,3.75
2023-03-28T18:34:20.539Z,3.40
2023-03-28T18:36:51.410Z,3.65
2023-03-28T18:39:23.038Z,3.95
2023-03-28T18:41:52.381Z,3.83
2023-03-28T18:44:21.671Z,3.70
2023-03-28T18:46:53.203Z,3.70
2023-03-28T18:49:23.162Z,3.40
2023-03-28T18:51:52.774Z,3.83
2023-03-28T18:54:22.829Z,3.70
2023-03-28T18:56:52.843Z,3.60
2023-03-28T18:59:23.258Z,3.62
2023-03-28T19:01:53.917Z,3.80
2023-03-28T19:04:26.189Z,3.80
2023-03-28T19:06:56.617Z,4.20
2023-03-28T19:09:26.503Z,4.30
2023-03-28T19:11:56.267Z,4.08
2023-03-28T19:14:25.589Z,4.12
2023-03-28T19:16:55.236Z,4.30
2023-03-28T19:19:25.377Z,4.55
2023-03-28T19:21:55.793Z,4.10
2023-03-28T19:24:25.084Z,4.37
2023-03-28T19:26:55.078Z,4.58
2023-03-28T19:29:25.067Z,4.17
2023-03-28T19:31:54.847Z,4.42
2023-03-28T19:34:24.287Z,4.35
2023-03-28T19:36:53.814Z,4.30
2023-03-28T19:39:23.521Z,4.30
2023-03-28T19:41:54.225Z,4.10
2023-03-28T19:44:23.814Z,4.50
2023-03-28T19:46:53.445Z,4.45
2023-03-28T19:49:22.850Z,4.35
2023-03-28T19:51:54.651Z,4.53
2023-03-28T19:54:25.820Z,4.33
2023-03-28T19:56:55.563Z,3.92
2023-03-28T19:59:25.248Z,4.40
2023-03-28T20:01:55.035Z,4.35
2023-03-28T20:04:24.527Z,4.20
2023-03-28T20:06:53.988Z,3.65
2023-03-28T20:09:24.359Z,4.17
2023-03-28T20:11:54.163Z,3.65
2023-03-28T20:14:23.631Z,3.60
2023-03-28T20:16:53.351Z,3.27
2023-03-28T20:19:25.947Z,3.10
2023-03-28T20:21:55.614Z,3.45
2023-03-28T20:24:25.212Z,3.05
2023-03-28T20:26:54.546Z,3.05
2023-03-28T20:29:24.852Z,3.33
2023-03-28T20:31:54.740Z,3.20
2023-03-28T20:34:24.360Z,3.17
2023-03-28T20:36:55.427Z,3.10
2023-03-28T20:39:26.438Z,2.90
2023-03-28T20:41:56.221Z,3.42
2023-03-28T20:44:27.576Z,3.42
2023-03-28T20:46:57.557Z,3.40
2023-03-28T20:49:27.531Z,3.45
2023-03-28T20:51:57.520Z,3.52
2023-03-28T20:54:27.948Z,3.65
2023-03-28T20:56:57.498Z,3.45
2023-03-28T20:59:28.301Z,3.65
2023-03-28T21:01:58.034Z,3.60
2023-03-28T21:04:28.640Z,3.65
2023-03-28T21:06:58.236Z,3.40
2023-03-28T21:09:27.673Z,3.60
2023-03-28T21:11:57.129Z,3.50
2023-03-28T21:14:26.505Z,3.58
2023-03-28T21:16:57.528Z,3.47
2023-03-28T21:19:27.059Z,2.95
2023-03-28T21:21:57.084Z,3.27
2023-03-28T21:24:38.287Z,3.50
2023-03-28T21:27:16.624Z,3.87
2023-03-28T21:29:48.640Z,3.50
2023-03-28T21:32:19.514Z,3.75
2023-03-28T21:37:34.805Z,3.08
2023-03-28T21:40:07.939Z,3.40
2023-03-28T21:42:54.279Z,3.50
2023-03-28T21:45:24.114Z,3.50
2023-03-28T21:47:54.052Z,3.25
2023-03-28T21:50:23.553Z,3.60
2023-03-28T21:52:53.252Z,3.30
2023-03-28T21:55:22.626Z,3.60
2023-03-28T21:57:52.002Z,3.20
2023-03-28T22:00:24.285Z,3.40
2023-03-28T22:02:54.612Z,3.60
2023-03-28T22:05:29.839Z,3.42
2023-03-28T22:07:55.808Z,3.50
2023-03-28T22:10:29.436Z,3.17
2023-03-28T22:12:59.018Z,3.75
2023-03-28T22:15:29.007Z,3.37
2023-03-28T22:17:59.012Z,3.60
2023-03-28T22:20:29.664Z,3.47
2023-03-28T22:23:00.619Z,3.35
2023-03-28T22:25:31.733Z,3.37
2023-03-28T22:28:01.768Z,3.00
2023-03-28T22:30:32.113Z,3.30
2023-03-28T22:33:02.547Z,3.60
2023-03-28T22:35:33.685Z,3.12
2023-03-28T22:38:04.301Z,3.40
2023-03-28T22:40:34.026Z,3.20
2023-03-28T22:43:03.388Z,3.08
2023-03-28T22:45:33.177Z,3.20
2023-03-28T22:48:03.409Z,3.35
2023-03-28T22:50:34.022Z,3.27
2023-03-28T22:53:04.435Z,3.00
2023-03-28T22:55:33.894Z,3.52
2023-03-28T22:58:03.958Z,3.10
2023-03-28T23:00:33.521Z,3.22
2023-03-28T23:03:03.103Z,3.10
2023-03-28T23:05:32.864Z,3.17
2023-03-28T23:08:02.242Z,3.58
2023-03-28T23:10:32.268Z,3.33
2023-03-28T23:13:01.540Z,3.55
2023-03-28T23:15:31.076Z,3.50
2023-03-28T23:18:00.420Z,3.30
2023-03-28T23:20:30.014Z,3.20
2023-03-28T23:22:59.310Z,4.35
2023-03-28T23:25:28.831Z,3.80
2023-03-28T23:27:58.657Z,3.80
2023-03-28T23:30:27.937Z,3.42
2023-03-28T23:32:57.505Z,3.95
2023-03-28T23:35:27.004Z,3.45
2023-03-28T23:37:56.661Z,3.17
2023-03-28T23:40:26.253Z,3.50
2023-03-28T23:42:55.581Z,3.70
2023-03-28T23:45:24.881Z,3.55
2023-03-28T23:47:54.221Z,3.22
2023-03-28T23:50:23.503Z,3.50
2023-03-28T23:52:53.718Z,3.55
2023-03-28T23:55:23.350Z,3.40
2023-03-28T23:57:54.540Z,3.27
